Nyac, Alaska
Current Conditions -  °F | °C
As of 1:56 PM on Thursday 27 Nov 2014 (Local Time) from PALG Reporting Station
Overcast Overcast  
Wind Chill: 13°   Ceiling: 4900
Heat Index: 25°   Visibility: 10mi
Dew Point: 20°   Wind: 14mph
Humidity: 81%   Direction: 90°E
Pressure: 30.05"   Gusts: 20mph
Location:  61°N, 159.94°W
Report Text: PALG 272256Z AUTO 09012G17KT 10SM OVC049 M04/M07 A3005 RMK AO2 TSNO T10381066 SLP179 $
Loading
Personal Weather Stations






























Interactive Weather Map New forecast layout! Learn more

10-Day Weather Forecast

Advertisements
Track Severe Weather on mobile